Time;durP1;ratioP1;P1;durP2;ratioP2;P2;SDS_P1;SDS_P2;PMS_P1;PMS_P2;Temp;Humidity;BMP_temperature;BMP_pressure;BME280_temperature;BME280_humidity;BME280_pressure;Samples;Min_cycle;Max_cycle;Signal;HPM_P1;HPM_P2
2022/05/29 00:00:11;;;;;;;;;5.00;5.00;;;;;13.19;51.25;101662.97;5078856;27;45346;-68
2022/05/29 00:02:36;;;;;;;;;3.33;3.00;;;;;13.13;51.50;101653.50;5075462;28;45464;-69
2022/05/29 00:05:02;;;;;;;;;3.33;3.00;;;;;13.16;50.97;101652.31;5081746;28;45376;-68
2022/05/29 00:07:27;;;;;;;;;5.00;3.00;;;;;13.08;51.56;101655.72;5083473;27;45335;-68
2022/05/29 00:09:53;;;;;;;;;3.00;3.00;;;;;13.01;51.83;101656.44;5081329;27;45419;-68
2022/05/29 00:12:21;;;;;;;;;4.00;4.00;;;;;13.10;51.73;101642.81;5083660;27;45411;-68
2022/05/29 00:14:48;;;;;;;;;2.00;2.00;;;;;13.03;51.54;101641.66;5080276;27;45720;-68
2022/05/29 00:17:14;;;;;;;;;6.00;4.33;;;;;13.05;51.62;101644.25;5082793;27;45408;-68
2022/05/29 00:19:40;;;;;;;;;1.00;1.00;;;;;12.92;52.00;101636.38;5082732;27;45413;-68
2022/05/29 00:22:06;;;;;;;;;3.00;3.00;;;;;12.84;51.77;101626.16;5082889;28;46019;-69
2022/05/29 00:24:32;;;;;;;;;3.00;3.00;;;;;12.93;51.67;101631.78;5084082;27;45538;-69
2022/05/29 00:26:58;;;;;;;;;3.00;1.00;;;;;13.01;51.63;101638.22;5082538;27;45468;-69
2022/05/29 00:29:23;;;;;;;;;1.00;1.00;;;;;12.84;52.59;101637.06;5084448;27;45499;-69
2022/05/29 00:31:49;;;;;;;;;5.67;3.33;;;;;12.80;52.43;101629.28;5083561;27;45461;-68
2022/05/29 00:34:15;;;;;;;;;1.00;1.00;;;;;12.82;52.44;101627.28;5082337;28;46222;-69
2022/05/29 00:36:44;;;;;;;;;3.00;3.00;;;;;12.84;52.16;101637.06;5079689;28;45316;-69
2022/05/29 00:39:11;;;;;;;;;1.00;1.00;;;;;12.81;52.42;101631.03;5081868;28;45295;-67
2022/05/29 00:41:39;;;;;;;;;2.00;2.00;;;;;12.78;51.99;101634.88;5082392;27;45522;-67
2022/05/29 00:44:13;;;;;;;;;1.00;1.00;;;;;12.71;52.42;101631.00;5084101;28;46495;-69
2022/05/29 00:46:42;;;;;;;;;1.67;0.67;;;;;12.59;52.84;101636.72;5082031;28;45695;-67
2022/05/29 00:49:10;;;;;;;;;2.33;1.33;;;;;12.59;52.87;101631.25;5082989;27;45432;-68
2022/05/29 00:51:48;;;;;;;;;2.00;2.00;;;;;12.48;52.91;101633.13;5082799;27;45581;-67
2022/05/29 00:54:15;;;;;;;;;2.00;2.00;;;;;12.39;53.57;101630.34;5080246;28;45435;-68
2022/05/29 00:56:42;;;;;;;;;3.00;3.00;;;;;12.32;53.45;101621.88;5083123;28;45347;-68
2022/05/29 00:59:15;;;;;;;;;2.00;2.00;;;;;12.39;53.43;101631.22;5083046;27;45451;-68
2022/05/29 01:01:41;;;;;;;;;4.00;4.00;;;;;12.24;54.01;101627.16;5083585;27;45476;-68
2022/05/29 01:04:07;;;;;;;;;10.67;7.67;;;;;12.19;54.31;101629.44;5081800;27;46133;-68
2022/05/29 01:06:33;;;;;;;;;9.00;9.00;;;;;12.24;54.44;101629.00;5083004;27;45442;-68
2022/05/29 01:09:00;;;;;;;;;10.00;7.00;;;;;12.13;54.54;101624.50;5081121;27;45236;-68
2022/05/29 01:11:25;;;;;;;;;5.00;5.00;;;;;12.17;55.31;101628.69;5084169;27;45523;-68
2022/05/29 01:14:17;;;;;;;;;6.33;5.00;;;;;12.18;54.68;101624.13;5083858;28;45333;-68
2022/05/29 01:16:56;;;;;;;;;4.00;4.00;;;;;12.17;54.95;101628.69;5093221;27;45404;-68
2022/05/29 01:19:53;;;;;;;;;5.67;5.00;;;;;12.03;55.20;101623.63;5084123;27;45419;-68
2022/05/29 01:22:30;;;;;;;;;1.00;1.00;;;;;12.09;55.05;101615.78;5081554;28;45373;-69
2022/05/29 01:25:33;;;;;;;;;1.00;1.00;;;;;11.97;55.74;101618.72;5083739;27;45433;-68
2022/05/29 01:28:21;;;;;;;;;3.33;2.00;;;;;12.07;55.92;101612.31;5080880;28;46039;-68
2022/05/29 01:31:18;;;;;;;;;2.00;2.00;;;;;12.12;55.38;101609.19;5073772;28;45487;-68
2022/05/29 01:33:55;;;;;;;;;2.00;2.00;;;;;12.09;56.00;101606.72;5076727;28;45342;-68
2022/05/29 01:36:34;;;;;;;;;1.67;1.67;;;;;12.14;55.42;101604.44;5077698;28;46737;-68
2022/05/29 01:39:06;;;;;;;;;3.00;1.00;;;;;11.97;56.21;101602.38;5080331;28;45373;-68
2022/05/29 01:41:48;;;;;;;;;2.00;2.00;;;;;11.92;56.42;101596.47;5081738;28;45678;-68
2022/05/29 01:44:24;;;;;;;;;2.00;2.00;;;;;11.88;57.18;101605.94;5083880;27;45452;-68
2022/05/29 01:46:56;;;;;;;;;3.00;1.00;;;;;11.99;56.47;101606.69;5081198;27;45495;-68
2022/05/29 01:49:37;;;;;;;;;1.67;1.67;;;;;11.87;56.79;101596.03;5083367;28;45196;-68
2022/05/29 01:52:13;;;;;;;;;2.00;2.00;;;;;11.85;56.52;101587.97;5074089;28;45405;-68
2022/05/29 01:54:44;;;;;;;;;4.00;4.00;;;;;11.85;57.36;101598.00;5083306;28;45285;-68
2022/05/29 01:57:22;;;;;;;;;2.00;2.00;;;;;11.81;57.37;101599.28;5081471;28;47202;-68
2022/05/29 02:00:09;;;;;;;;;1.67;1.67;;;;;11.78;57.66;101607.72;5082128;27;45504;-69
2022/05/29 02:02:52;;;;;;;;;4.00;2.00;;;;;11.62;57.68;101578.22;5082595;27;45400;-68
2022/05/29 02:05:23;;;;;;;;;3.00;3.00;;;;;11.63;58.31;101596.28;5081545;28;45294;-68
2022/05/29 02:07:55;;;;;;;;;2.00;0.00;;;;;11.62;58.47;101605.44;5082529;27;45395;-69
2022/05/29 02:10:23;;;;;;;;;2.33;2.00;;;;;11.61;58.78;101604.63;5080594;28;45358;-69
2022/05/29 02:12:55;;;;;;;;;2.33;2.33;;;;;11.50;58.95;101596.50;5082682;28;45405;-68
2022/05/29 02:15:28;;;;;;;;;3.33;2.33;;;;;11.40;59.18;101590.13;5081779;28;45425;-68
2022/05/29 02:17:57;;;;;;;;;4.67;4.67;;;;;11.36;59.66;101591.41;5081478;28;46291;-68
2022/05/29 02:20:29;;;;;;;;;3.00;3.00;;;;;11.24;59.67;101592.47;5082812;27;45417;-69
2022/05/29 02:23:04;;;;;;;;;6.00;3.00;;;;;11.29;59.91;101590.22;5082338;27;45321;-68
2022/05/29 02:25:31;;;;;;;;;3.00;1.33;;;;;11.12;60.49;101575.34;5080444;28;45432;-68
2022/05/29 02:28:10;;;;;;;;;4.00;2.33;;;;;11.10;60.64;101585.50;5080857;27;45394;-68
2022/05/29 02:31:17;;;;;;;;;2.00;2.00;;;;;11.07;60.47;101584.91;5082494;27;45336;-68
2022/05/29 02:33:59;;;;;;;;;2.00;2.00;;;;;11.16;60.58;101592.28;5081903;28;45359;-68
2022/05/29 02:36:57;;;;;;;;;3.00;3.00;;;;;11.11;60.57;101578.19;5076758;28;45222;-68
2022/05/29 02:39:53;;;;;;;;;3.00;3.00;;;;;11.09;61.11;101586.50;5076882;28;45494;-68
2022/05/29 02:42:35;;;;;;;;;2.00;2.00;;;;;11.06;61.08;101588.59;5081693;28;45309;-68
2022/05/29 02:45:19;;;;;;;;;4.00;4.00;;;;;11.02;61.24;101582.56;5082094;27;45459;-68
2022/05/29 02:47:54;;;;;;;;;3.00;3.00;;;;;11.04;61.27;101580.56;5080956;28;45551;-68
2022/05/29 02:50:22;;;;;;;;;2.33;2.33;;;;;11.02;61.11;101573.56;5098028;27;45632;-68
2022/05/29 02:52:58;;;;;;;;;2.33;2.33;;;;;11.02;60.67;101577.13;5081781;28;45409;-69
2022/05/29 02:55:24;;;;;;;;;4.33;3.00;;;;;10.92;61.40;101570.75;5074388;28;45203;-68
2022/05/29 02:57:59;;;;;;;;;3.00;3.00;;;;;10.96;61.51;101572.19;5082303;27;45432;-68
2022/05/29 03:00:32;;;;;;;;;2.33;2.33;;;;;10.93;61.34;101580.63;5077379;28;45619;-68
2022/05/29 03:03:03;;;;;;;;;2.67;2.67;;;;;10.97;61.47;101575.78;5078879;28;45479;-68
2022/05/29 03:05:48;;;;;;;;;3.00;3.00;;;;;10.90;61.81;101562.72;5080377;28;45206;-68
2022/05/29 03:08:31;;;;;;;;;2.00;2.00;;;;;10.89;62.03;101565.56;5079708;28;45373;-68
2022/05/29 03:11:11;;;;;;;;;2.00;2.00;;;;;10.87;62.09;101563.00;5080461;28;46633;-68
2022/05/29 03:13:51;;;;;;;;;4.33;3.00;;;;;10.76;62.35;101554.88;5078647;28;45457;-68
2022/05/29 03:16:49;;;;;;;;;1.67;1.00;;;;;10.97;61.89;101578.50;5081934;28;45376;-68
2022/05/29 03:19:31;;;;;;;;;4.00;4.00;;;;;10.88;61.90;101570.13;5082527;27;45397;-68
2022/05/29 03:21:56;;;;;;;;;3.33;3.00;;;;;10.84;62.06;101567.81;5079816;28;47214;-67
2022/05/29 03:24:41;;;;;;;;;3.00;3.00;;;;;10.81;62.47;101568.94;5080750;28;45239;-67
2022/05/29 03:27:23;;;;;;;;;2.67;2.33;;;;;10.79;62.64;101570.94;5080717;28;45532;-67
2022/05/29 03:29:54;;;;;;;;;4.00;2.00;;;;;10.84;62.29;101568.69;5083244;28;45521;-68
2022/05/29 03:32:20;;;;;;;;;3.33;2.00;;;;;10.91;61.69;101569.03;5083205;28;45547;-68
2022/05/29 03:34:45;;;;;;;;;4.00;3.00;;;;;10.89;61.72;101560.13;5085385;27;45222;-68
2022/05/29 03:37:11;;;;;;;;;4.00;4.00;;;;;10.74;62.42;101561.44;5080434;28;45298;-67
2022/05/29 03:39:36;;;;;;;;;1.67;1.67;;;;;10.75;62.52;101561.28;5085732;28;45778;-68
2022/05/29 03:42:03;;;;;;;;;3.67;3.67;;;;;10.74;62.61;101556.84;5080386;28;45396;-68
2022/05/29 03:44:28;;;;;;;;;3.67;2.00;;;;;10.70;62.92;101554.53;5085032;27;45413;-67
2022/05/29 03:46:54;;;;;;;;;4.33;3.00;;;;;10.65;62.92;101552.22;5082666;28;45485;-67
2022/05/29 03:49:21;;;;;;;;;6.67;6.00;;;;;10.71;62.90;101550.81;5084439;28;45447;-68
2022/05/29 03:51:47;;;;;;;;;3.67;3.00;;;;;10.80;62.28;101550.06;5084663;27;45372;-68
2022/05/29 03:54:13;;;;;;;;;4.00;4.00;;;;;10.65;62.98;101540.47;5085139;27;45435;-68
2022/05/29 03:56:38;;;;;;;;;4.00;3.33;;;;;10.69;62.87;101550.94;5085005;28;45434;-68
2022/05/29 03:59:04;;;;;;;;;3.67;3.67;;;;;10.53;63.46;101537.78;5084789;27;45189;-68
2022/05/29 04:01:30;;;;;;;;;3.00;3.00;;;;;10.53;63.58;101554.09;5082498;28;46988;-68
2022/05/29 04:03:56;;;;;;;;;3.00;3.00;;;;;10.58;63.46;101548.28;5083562;27;45322;-68
2022/05/29 04:06:22;;;;;;;;;3.33;2.00;;;;;10.63;63.25;101547.88;5084645;28;45316;-68
2022/05/29 04:14:17;;;;;;;;;4.33;2.00;;;;;10.64;62.93;101549.63;5081071;28;45340;-67
2022/05/29 04:16:42;;;;;;;;;1.00;1.00;;;;;10.61;63.43;101558.88;5083709;28;45467;-68
2022/05/29 04:19:08;;;;;;;;;2.00;2.00;;;;;10.50;63.47;101551.66;5084591;27;45384;-68
2022/05/29 04:21:33;;;;;;;;;4.67;3.00;;;;;10.63;63.51;101559.63;5083940;28;45435;-68
2022/05/29 04:23:58;;;;;;;;;3.67;3.67;;;;;10.60;63.61;101556.28;5084012;27;45294;-68
2022/05/29 04:26:24;;;;;;;;;4.67;4.00;;;;;10.60;63.44;101559.00;5083782;28;45390;-68
2022/05/29 04:28:49;;;;;;;;;3.67;3.33;;;;;10.57;64.18;101560.16;5083994;27;45381;-68
2022/05/29 04:31:14;;;;;;;;;3.00;3.00;;;;;10.64;63.55;101555.91;5083594;27;46482;-68
2022/05/29 04:33:40;;;;;;;;;4.00;3.00;;;;;10.59;63.62;101558.16;5079620;27;45270;-68
2022/05/29 04:36:05;;;;;;;;;4.00;3.00;;;;;10.49;63.77;101547.19;5084108;27;45468;-68
2022/05/29 04:38:31;;;;;;;;;2.67;2.00;;;;;10.60;63.75;101557.16;5080579;27;45403;-68
2022/05/29 04:40:57;;;;;;;;;2.00;2.00;;;;;10.60;63.60;101550.84;5082828;28;45431;-68
2022/05/29 04:43:24;;;;;;;;;1.33;1.33;;;;;10.57;64.11;101546.56;5099858;27;45281;-68
2022/05/29 04:45:55;;;;;;;;;3.00;3.00;;;;;10.65;63.57;101557.66;5082391;28;45243;-68
2022/05/29 04:48:20;;;;;;;;;4.33;4.00;;;;;10.79;63.43;101556.47;5083191;28;45531;-68
2022/05/29 04:50:46;;;;;;;;;6.00;4.67;;;;;10.81;63.17;101557.22;5084290;27;45368;-68
2022/05/29 04:53:12;;;;;;;;;5.00;5.00;;;;;10.85;63.02;101561.38;5083487;27;45353;-68
2022/05/29 04:55:41;;;;;;;;;5.00;3.00;;;;;10.97;62.62;101556.75;5084457;28;45321;-68
2022/05/29 04:58:07;;;;;;;;;1.00;1.00;;;;;11.39;62.02;101558.50;5082335;28;45286;-68
2022/05/29 05:00:33;;;;;;;;;5.00;4.00;;;;;12.70;58.09;101554.81;5083784;27;45352;-68
2022/05/29 05:02:59;;;;;;;;;2.00;2.00;;;;;12.56;57.37;101549.78;5082894;28;45447;-68
2022/05/29 05:05:25;;;;;;;;;3.67;3.33;;;;;11.91;58.48;101545.72;5082886;28;45479;-68
2022/05/29 05:07:50;;;;;;;;;3.33;3.00;;;;;11.49;60.41;101550.38;5083011;27;45282;-68
2022/05/29 05:10:17;;;;;;;;;2.67;2.67;;;;;11.43;60.74;101549.06;5083461;28;45364;-68
2022/05/29 05:12:43;;;;;;;;;4.00;3.00;;;;;11.48;60.57;101554.09;5083459;27;46027;-68
2022/05/29 05:15:11;;;;;;;;;2.33;2.33;;;;;11.29;61.24;101546.69;5083826;27;45210;-68
2022/05/29 05:17:36;;;;;;;;;8.33;5.00;;;;;11.16;61.27;101551.47;5079444;28;45463;-68
2022/05/29 05:20:03;;;;;;;;;3.00;3.00;;;;;11.23;61.88;101558.97;5096444;27;45970;-68
2022/05/29 05:22:28;;;;;;;;;3.00;3.00;;;;;11.41;61.32;101551.03;5083250;28;45463;-68
2022/05/29 05:24:54;;;;;;;;;2.00;2.00;;;;;12.06;60.01;101539.75;5083792;27;45366;-68
2022/05/29 05:27:19;;;;;;;;;2.33;2.33;;;;;12.44;58.25;101536.28;5083086;27;45446;-68
2022/05/29 05:29:44;;;;;;;;;3.00;3.00;;;;;12.13;58.49;101541.97;5083511;28;45760;-68
2022/05/29 05:32:10;;;;;;;;;3.33;1.67;;;;;12.09;58.97;101536.78;5078086;28;45466;-68
2022/05/29 05:34:36;;;;;;;;;2.00;2.00;;;;;12.08;58.85;101539.63;5083769;27;45375;-68
2022/05/29 05:37:02;;;;;;;;;4.00;2.33;;;;;12.05;59.17;101535.31;5078787;28;45447;-68
2022/05/29 05:39:27;;;;;;;;;4.67;3.00;;;;;11.97;59.39;101537.03;5083360;27;45252;-68
2022/05/29 05:41:53;;;;;;;;;5.00;3.33;;;;;12.00;59.64;101534.00;5083062;28;45407;-68
2022/05/29 05:44:18;;;;;;;;;3.00;2.00;;;;;12.04;59.36;101540.91;5077422;28;45435;-68
2022/05/29 05:46:49;;;;;;;;;3.00;3.00;;;;;12.28;58.67;101533.22;5081597;28;45366;-68
2022/05/29 05:49:17;;;;;;;;;7.00;4.33;;;;;12.46;58.14;101531.53;5081853;28;47389;-67
2022/05/29 05:51:43;;;;;;;;;4.00;4.00;;;;;12.53;57.93;101534.56;5080730;28;45626;-68
2022/05/29 05:54:08;;;;;;;;;3.00;3.00;;;;;12.70;57.73;101541.19;5082249;28;45230;-68
2022/05/29 05:56:34;;;;;;;;;2.00;2.00;;;;;12.69;57.54;101543.06;5083138;28;45492;-68
2022/05/29 05:58:59;;;;;;;;;3.00;3.00;;;;;12.67;56.69;101539.59;5082287;27;45668;-68
2022/05/29 06:01:24;;;;;;;;;4.67;3.33;;;;;12.80;57.37;101548.34;5082246;28;45582;-68
2022/05/29 06:03:50;;;;;;;;;3.00;3.00;;;;;13.77;54.55;101546.34;5081673;27;45286;-68
2022/05/29 06:06:15;;;;;;;;;3.00;3.00;;;;;13.69;53.89;101540.75;5081829;28;45294;-68
2022/05/29 06:08:41;;;;;;;;;2.67;2.67;;;;;13.51;54.53;101542.56;5080551;27;45611;-68
2022/05/29 06:11:06;;;;;;;;;5.00;3.33;;;;;13.59;54.67;101534.47;5082813;28;45565;-68
2022/05/29 06:13:32;;;;;;;;;3.00;3.00;;;;;13.57;54.38;101531.91;5079861;27;45315;-68
2022/05/29 06:16:04;;;;;;;;;2.67;2.00;;;;;13.32;54.86;101537.13;5082914;27;45322;-68
2022/05/29 06:18:30;;;;;;;;;2.67;2.67;;;;;13.30;54.40;101533.69;5079901;27;46953;-68
2022/05/29 06:21:00;;;;;;;;;4.00;2.33;;;;;13.19;55.00;101524.66;5082405;27;45304;-68
2022/05/29 06:23:26;;;;;;;;;3.33;2.00;;;;;13.27;55.08;101536.72;5082525;28;45365;-68
2022/05/29 06:25:52;;;;;;;;;2.00;2.00;;;;;13.38;54.05;101529.22;5082884;27;45226;-68
2022/05/29 06:28:17;;;;;;;;;2.00;2.00;;;;;13.61;53.94;101532.44;5082253;28;45254;-68
2022/05/29 06:30:44;;;;;;;;;2.00;2.00;;;;;13.86;53.29;101526.31;5081069;28;45359;-69
2022/05/29 06:33:10;;;;;;;;;2.33;2.33;;;;;13.69;53.26;101524.38;5077788;27;45563;-68
2022/05/29 06:35:35;;;;;;;;;5.00;3.00;;;;;13.71;52.78;101527.81;5083498;27;45386;-68
2022/05/29 06:38:01;;;;;;;;;4.00;2.00;;;;;13.60;53.11;101519.81;5080618;28;47252;-69
2022/05/29 06:40:26;;;;;;;;;2.33;2.00;;;;;13.67;53.36;101529.13;5082636;27;45359;-69
2022/05/29 06:42:51;;;;;;;;;1.00;1.00;;;;;13.91;52.63;101525.84;5080016;27;45380;-69
2022/05/29 06:45:17;;;;;;;;;1.33;1.33;;;;;14.10;52.21;101524.91;5082807;27;45392;-69
2022/05/29 06:47:42;;;;;;;;;2.33;2.33;;;;;14.23;51.70;101526.28;5080655;28;45996;-69
2022/05/29 06:50:09;;;;;;;;;4.00;3.33;;;;;13.97;52.35;101528.84;5082635;27;45406;-69
2022/05/29 06:52:35;;;;;;;;;1.00;1.00;;;;;13.86;51.88;101530.94;5097650;27;45327;-68
2022/05/29 06:55:02;;;;;;;;;2.00;1.67;;;;;13.56;52.62;101534.78;5075572;27;45325;-69
2022/05/29 06:57:36;;;;;;;;;3.33;3.33;;;;;13.59;52.46;101534.47;5080290;28;46741;-69
2022/05/29 07:08:43;;;;;;;;;1.00;1.00;;;;;13.75;51.54;101531.97;5081373;27;45317;-68
2022/05/29 07:11:17;;;;;;;;;2.00;2.00;;;;;13.84;51.78;101533.81;5085144;28;45344;-68
2022/05/29 07:13:43;;;;;;;;;4.33;2.33;;;;;13.99;50.59;101525.97;5082156;27;45483;-69
2022/05/29 07:16:09;;;;;;;;;0.67;0.67;;;;;13.93;50.76;101521.13;5085257;28;45589;-70
2022/05/29 07:18:34;;;;;;;;;0.00;0.00;;;;;14.26;49.82;101525.09;5085211;27;45415;-69
2022/05/29 07:21:02;;;;;;;;;2.00;2.00;;;;;14.52;49.43;101517.91;5085212;28;45254;-70
2022/05/29 07:23:27;;;;;;;;;2.00;2.00;;;;;14.61;48.69;101516.13;5083694;28;45282;-69
2022/05/29 07:25:53;;;;;;;;;1.00;1.00;;;;;14.76;48.62;101522.72;5085528;27;45482;-69
2022/05/29 07:28:18;;;;;;;;;1.00;1.00;;;;;15.09;47.82;101515.69;5084794;27;46296;-69
2022/05/29 07:30:47;;;;;;;;;1.00;1.00;;;;;15.30;46.99;101524.41;5085064;27;45160;-69
2022/05/29 07:33:13;;;;;;;;;2.00;2.00;;;;;14.87;46.18;101513.44;5083155;28;45367;-69
2022/05/29 07:35:38;;;;;;;;;1.00;1.00;;;;;14.60;46.93;101506.19;5085777;27;45309;-69
2022/05/29 07:38:03;;;;;;;;;2.67;2.67;;;;;14.62;47.53;101515.06;5082036;27;46658;-69
2022/05/29 07:40:29;;;;;;;;;3.33;1.00;;;;;14.31;47.75;101504.50;5079846;28;45455;-69
2022/05/29 07:45:38;;;;;;;;;3.67;2.00;;;;;14.99;47.74;101507.56;5085406;28;45407;-69
2022/05/29 07:48:04;;;;;;;;;2.00;2.00;;;;;15.02;46.65;101511.88;5083078;27;45533;-68
2022/05/29 07:50:29;;;;;;;;;4.00;2.00;;;;;14.66;48.16;101509.16;5084901;28;45710;-68
2022/05/29 07:52:54;;;;;;;;;1.33;1.33;;;;;14.61;47.85;101516.13;5083918;27;45309;-69
2022/05/29 07:55:21;;;;;;;;;3.00;1.33;;;;;14.60;46.93;101508.94;5083481;28;45533;-68
2022/05/29 07:57:47;;;;;;;;;2.00;2.00;;;;;14.52;46.54;101512.44;5083495;27;46342;-69
2022/05/29 08:00:15;;;;;;;;;2.00;2.00;;;;;14.87;46.42;101517.03;5082738;28;45334;-69
2022/05/29 08:02:41;;;;;;;;;1.67;1.00;;;;;15.16;44.89;101517.63;5083564;27;45426;-69
2022/05/29 08:05:09;;;;;;;;;2.33;1.00;;;;;15.26;45.07;101512.06;5083203;28;45502;-69
2022/05/29 08:07:35;;;;;;;;;1.00;1.00;;;;;15.35;44.09;101511.06;5083735;28;45814;-69
2022/05/29 08:10:00;;;;;;;;;5.00;2.00;;;;;15.73;44.25;101497.97;5082483;28;45356;-69
2022/05/29 08:12:26;;;;;;;;;4.00;2.67;;;;;16.00;44.40;101505.97;5079634;27;45411;-69
2022/05/29 08:14:51;;;;;;;;;2.00;2.00;;;;;16.04;44.88;101501.03;5078329;28;45710;-69
2022/05/29 08:17:17;;;;;;;;;2.00;2.00;;;;;15.99;44.68;101497.94;5080021;27;45723;-69
2022/05/29 08:19:42;;;;;;;;;2.00;2.00;;;;;15.97;43.28;101500.84;5078418;28;45278;-69
2022/05/29 08:22:08;;;;;;;;;2.00;2.00;;;;;16.00;42.75;101499.66;5083672;27;45430;-69
2022/05/29 08:32:57;;;;;;;;;2.67;2.67;;;;;15.72;43.71;101490.78;5082030;28;45335;-71
2022/05/29 08:35:22;;;;;;;;;3.67;3.67;;;;;16.11;43.81;101489.25;5081580;27;45211;-70
2022/05/29 08:37:48;;;;;;;;;2.00;2.00;;;;;16.18;42.51;101470.25;5080850;27;47238;-69
2022/05/29 08:40:13;;;;;;;;;3.00;3.00;;;;;16.51;42.59;101482.16;5080132;27;45313;-69
2022/05/29 08:42:41;;;;;;;;;2.00;2.00;;;;;16.40;41.40;101466.84;5082581;28;45604;-69
2022/05/29 08:45:12;;;;;;;;;7.00;4.00;;;;;16.51;41.77;101482.97;5079791;27;45254;-69
2022/05/29 08:47:38;;;;;;;;;2.00;2.00;;;;;16.48;41.42;101444.94;5081006;28;47976;-69
2022/05/29 08:50:05;;;;;;;;;3.00;1.00;;;;;16.49;41.19;101470.47;5078603;27;45234;-69
2022/05/29 08:52:49;;;;;;;;;2.00;2.00;;;;;16.38;42.08;101481.75;5082994;28;46115;-69
2022/05/29 08:55:23;;;;;;;;;3.00;3.00;;;;;16.11;42.30;101489.25;5078696;27;45219;-69
2022/05/29 08:58:46;;;;;;;;;2.00;2.00;;;;;16.31;41.30;101474.22;5082848;28;45893;-69
2022/05/29 09:01:32;;;;;;;;;1.00;1.00;;;;;16.23;40.43;101463.22;5044900;28;45485;-69
2022/05/29 09:04:06;;;;;;;;;3.00;3.00;;;;;16.11;41.03;101464.56;5066957;28;45458;-69
2022/05/29 09:06:43;;;;;;;;;1.00;1.00;;;;;16.53;41.39;101474.59;5072475;28;45382;-69
2022/05/29 09:09:24;;;;;;;;;2.33;1.00;;;;;16.56;40.49;101474.25;5083667;28;46650;-69
2022/05/29 09:12:08;;;;;;;;;1.00;1.00;;;;;16.29;41.26;101458.97;5082805;27;45522;-69
2022/05/29 09:14:52;;;;;;;;;2.00;1.00;;;;;16.55;41.27;101469.78;5083333;27;45278;-68
2022/05/29 09:17:29;;;;;;;;;1.00;0.67;;;;;16.54;39.39;101468.06;5078262;28;45543;-69
2022/05/29 09:20:09;;;;;;;;;2.67;1.67;;;;;16.72;38.89;101455.09;5078593;28;45381;-69
2022/05/29 09:22:47;;;;;;;;;1.33;1.33;;;;;16.90;38.03;101458.53;5082639;27;45386;-69
2022/05/29 09:25:23;;;;;;;;;2.00;2.00;;;;;17.02;38.42;101451.63;5081643;27;45395;-69
2022/05/29 09:27:48;;;;;;;;;2.33;2.33;;;;;17.11;37.69;101456.09;5082417;28;45504;-70
2022/05/29 09:30:16;;;;;;;;;2.00;1.00;;;;;16.98;38.71;101454.91;5082475;27;46042;-69
2022/05/29 09:32:54;;;;;;;;;4.00;2.33;;;;;16.67;40.03;101447.38;5080996;27;45295;-69
2022/05/29 09:35:40;;;;;;;;;2.00;2.00;;;;;17.11;39.79;101447.84;5080971;27;45343;-70
2022/05/29 09:38:29;;;;;;;;;2.00;2.00;;;;;17.38;37.47;101449.38;5079713;27;45285;-70
2022/05/29 09:41:16;;;;;;;;;3.33;3.33;;;;;17.15;38.36;101453.88;5074384;28;45397;-71
2022/05/29 09:44:04;;;;;;;;;3.00;1.00;;;;;17.20;38.26;101439.59;5078852;27;45414;-71
2022/05/29 09:46:32;;;;;;;;;0.00;0.00;;;;;16.93;39.13;101444.47;5081266;27;45376;-70
2022/05/29 09:51:57;;;;;;;;;2.00;2.00;;;;;16.77;40.05;101440.84;5081267;28;45369;-70
2022/05/29 09:54:44;;;;;;;;;2.00;2.00;;;;;16.44;39.97;101437.22;5076176;28;45505;-70
2022/05/29 09:57:19;;;;;;;;;2.00;2.00;;;;;16.58;40.16;101442.03;5082388;27;45233;-70
2022/05/29 09:59:45;;;;;;;;;1.33;1.00;;;;;16.79;39.71;101436.94;5077624;28;45707;-69
2022/05/29 10:02:31;;;;;;;;;1.00;1.00;;;;;16.62;40.59;101433.31;5075915;28;45310;-70
2022/05/29 10:04:59;;;;;;;;;2.00;2.00;;;;;16.92;39.97;101429.03;5076749;28;45382;-70
2022/05/29 10:07:47;;;;;;;;;4.00;3.00;;;;;17.26;39.22;101433.41;5078399;28;45334;-69
2022/05/29 10:10:34;;;;;;;;;3.00;1.00;;;;;17.72;36.88;101420.75;5081866;27;45271;-69
2022/05/29 10:13:01;;;;;;;;;1.00;1.00;;;;;17.89;35.91;101404.03;5077773;27;45345;-69
2022/05/29 10:15:26;;;;;;;;;2.67;2.67;;;;;18.53;35.27;101421.13;5078913;28;45215;-70
2022/05/29 10:18:01;;;;;;;;;3.00;2.00;;;;;18.59;35.03;101414.91;5074362;28;45509;-70
2022/05/29 10:20:38;;;;;;;;;1.67;1.00;;;;;18.67;33.15;101420.34;5081767;28;45446;-70
2022/05/29 10:23:09;;;;;;;;;3.00;3.00;;;;;18.16;33.27;101418.28;5072617;27;45397;-70
2022/05/29 10:25:53;;;;;;;;;3.00;3.00;;;;;17.77;34.70;101410.94;5082358;28;45242;-70
2022/05/29 10:28:23;;;;;;;;;2.00;0.00;;;;;17.81;35.64;101411.44;5081656;27;45458;-70
2022/05/29 10:30:56;;;;;;;;;1.00;1.00;;;;;17.93;35.65;101409.13;5082889;27;45415;-70
2022/05/29 10:33:25;;;;;;;;;2.00;2.00;;;;;18.47;35.15;101413.59;5077868;28;46172;-71
2022/05/29 10:35:58;;;;;;;;;2.33;2.33;;;;;18.51;35.26;101403.94;5082737;27;45321;-70
2022/05/29 10:38:27;;;;;;;;;1.33;1.33;;;;;18.10;34.54;101413.53;5076155;27;45435;-71
2022/05/29 10:40:59;;;;;;;;;2.00;2.00;;;;;17.78;35.87;101404.41;5075083;28;45578;-69
2022/05/29 10:43:37;;;;;;;;;1.00;1.00;;;;;17.61;35.59;101400.00;5076513;27;45368;-69
2022/05/29 10:46:15;;;;;;;;;2.00;2.00;;;;;18.12;34.53;101393.03;5074522;28;45303;-69
2022/05/29 10:49:10;;;;;;;;;2.00;2.00;;;;;18.68;33.31;101388.19;5079582;28;45385;-70
2022/05/29 10:51:54;;;;;;;;;4.00;2.33;;;;;19.42;33.08;101376.22;5082067;27;45221;-69
2022/05/29 10:55:15;;;;;;;;;1.00;1.00;;;;;19.90;32.92;101371.09;5076070;28;45310;-68
2022/05/29 10:58:03;;;;;;;;;2.00;2.00;;;;;20.66;32.10;101377.88;5070615;28;45430;-70
2022/05/29 11:00:33;;;;;;;;;0.33;0.33;;;;;20.66;31.65;101375.13;5082374;28;45361;-69
2022/05/29 11:03:18;;;;;;;;;5.00;3.33;;;;;20.37;31.61;101370.59;5081823;28;45509;-69
2022/05/29 11:06:19;;;;;;;;;2.33;2.33;;;;;20.35;32.16;101371.84;5081979;28;45267;-69
2022/05/29 11:08:47;;;;;;;;;2.33;2.33;;;;;20.59;31.28;101369.53;5005739;28;45357;-70
2022/05/29 11:11:32;;;;;;;;;3.67;3.33;;;;;20.40;31.10;101366.56;5062897;28;45550;-70
2022/05/29 11:14:24;;;;;;;;;1.33;1.33;;;;;20.07;31.66;101367.06;5079760;28;45615;-70
2022/05/29 11:17:11;;;;;;;;;3.00;3.00;;;;;19.39;32.33;101360.03;5079297;28;48664;-69
2022/05/29 11:19:58;;;;;;;;;1.67;1.67;;;;;19.06;32.75;101369.75;5081806;27;45569;-69
2022/05/29 11:22:44;;;;;;;;;1.67;1.67;;;;;19.40;32.71;101369.16;5069800;28;45285;-69
2022/05/29 11:25:12;;;;;;;;;1.33;1.33;;;;;19.72;31.05;101362.41;5079333;28;45682;-69
2022/05/29 11:27:44;;;;;;;;;3.00;1.67;;;;;20.08;29.91;101351.38;5080921;27;45434;-69
2022/05/29 11:30:25;;;;;;;;;1.67;1.67;;;;;19.77;30.33;101354.41;5081302;27;45241;-69
2022/05/29 11:33:33;;;;;;;;;2.00;2.00;;;;;20.26;30.30;101343.50;5080518;28;45452;-70
2022/05/29 11:36:33;;;;;;;;;2.00;2.00;;;;;20.41;28.88;101348.97;5073403;28;45431;-69
2022/05/29 11:39:26;;;;;;;;;2.67;2.33;;;;;19.70;29.67;101345.22;5080189;28;47378;-71
2022/05/29 11:42:16;;;;;;;;;1.67;1.67;;;;;20.04;30.08;101337.09;5084349;27;45723;-68
2022/05/29 11:44:57;;;;;;;;;1.00;1.00;;;;;20.38;29.57;101333.66;5080250;28;45406;-71
2022/05/29 11:53:22;;;;;;;;;2.33;2.33;;;;;20.42;29.97;101317.56;5083283;28;45443;-71
2022/05/29 11:55:49;;;;;;;;;1.00;1.00;;;;;20.53;29.91;101311.47;5081301;28;45359;-70
2022/05/29 11:58:21;;;;;;;;;1.67;1.67;;;;;20.79;30.03;101317.22;5084976;27;45476;-70
2022/05/29 12:01:02;;;;;;;;;1.67;1.67;;;;;21.38;29.28;101296.56;5084799;27;46115;-70
2022/05/29 12:03:38;;;;;;;;;1.33;1.33;;;;;21.36;28.52;101294.84;5083896;28;45478;-69
2022/05/29 12:06:16;;;;;;;;;1.00;1.00;;;;;20.20;30.52;101303.75;5084335;27;45486;-70
2022/05/29 12:09:05;;;;;;;;;1.33;1.00;;;;;20.12;30.59;101298.38;5083811;28;45392;-70
2022/05/29 12:11:48;;;;;;;;;3.67;1.00;;;;;20.11;30.82;101293.88;5074872;28;45406;-70
2022/05/29 12:14:28;;;;;;;;;2.00;2.00;;;;;20.07;31.45;101288.97;5096531;27;45901;-70
2022/05/29 12:16:59;;;;;;;;;4.00;2.00;;;;;20.90;30.75;101286.28;5082531;28;45206;-70
2022/05/29 12:19:31;;;;;;;;;0.00;0.00;;;;;21.20;28.78;101273.09;5085317;27;45495;-70
2022/05/29 12:22:05;;;;;;;;;1.67;1.67;;;;;20.77;29.37;101286.19;5082274;28;46757;-71